Terminal Aerodrome Forecast
Issued by NWS

Current Version | Previous Version | Text Only | Print | Product List | Glossary On
Versions: 1 2 3 4 5 6 7 8 9 10 11 12 13 14 15 16
000
FTUS42 TJSJ 021400 AAA
TAFJSJ
TAF AMD
TJSJ 021414Z 0214/0312 07009KT P6SM VCSH FEW030
      TEMPO 0214/0217 4SM SHRA BKN030
     FM022200 10006KT P6SM SCT030=

USA.gov is the U.S. government's official web portal to all federal, state and local government web resources and services.